Time;durP1;ratioP1;P1;durP2;ratioP2;P2;SDS_P1;SDS_P2;PMS_P1;PMS_P2;Temp;Humidity;BMP_temperature;BMP_pressure;BME280_temperature;BME280_humidity;BME280_pressure;Samples;Min_cycle;Max_cycle;Signal;HPM_P1;HPM_P2
2023/07/27 00:01:51;;;;;;;2.13;1.52;;;;;;;15.41;96.83;98318.13;4126310;28;20217;-48
2023/07/27 00:03:54;;;;;;;3.08;1.75;;;;;;;15.29;97.15;98321.22;4126689;28;20680;-48
2023/07/27 00:05:56;;;;;;;6.07;1.90;;;;;;;15.25;97.41;98317.41;4119827;28;20210;-48
2023/07/27 00:07:58;;;;;;;2.00;1.80;;;;;;;15.23;97.46;98322.34;4141937;28;20216;-48
2023/07/27 00:10:00;;;;;;;2.95;1.85;;;;;;;15.29;97.40;98323.16;4124858;28;20234;-48
2023/07/27 00:12:02;;;;;;;2.13;1.60;;;;;;;15.36;97.63;98316.25;4125277;28;20225;-48
2023/07/27 00:14:05;;;;;;;1.92;1.50;;;;;;;15.26;97.70;98316.28;4124202;28;20214;-48
2023/07/27 00:16:07;;;;;;;3.47;1.73;;;;;;;15.28;97.90;98319.56;4140328;28;20244;-49
2023/07/27 00:18:09;;;;;;;3.17;1.77;;;;;;;15.24;98.05;98318.47;4127742;28;20218;-48
2023/07/27 00:20:10;;;;;;;2.53;2.22;;;;;;;15.21;98.45;98313.56;4129076;28;20226;-47
2023/07/27 00:22:12;;;;;;;1.48;1.38;;;;;;;15.20;98.42;98317.44;4121722;28;20290;-49
2023/07/27 00:24:14;;;;;;;2.03;1.92;;;;;;;15.21;98.41;98310.78;4129447;28;20739;-49
2023/07/27 00:26:16;;;;;;;1.67;1.58;;;;;;;15.19;98.88;98313.03;4122383;28;20210;-48
2023/07/27 00:28:18;;;;;;;2.92;1.70;;;;;;;15.26;98.82;98310.78;4127347;28;20214;-48
2023/07/27 00:30:19;;;;;;;5.93;2.08;;;;;;;15.18;98.86;98308.63;4126578;28;20350;-47
2023/07/27 00:32:22;;;;;;;2.30;1.70;;;;;;;15.15;98.79;98309.19;4113055;28;20222;-48
2023/07/27 00:34:23;;;;;;;1.80;1.70;;;;;;;15.16;98.88;98296.22;4129512;28;20224;-48
2023/07/27 00:36:25;;;;;;;2.72;1.80;;;;;;;15.15;98.56;98295.41;4143676;28;20217;-49
2023/07/27 00:38:27;;;;;;;2.30;1.50;;;;;;;15.17;99.20;98295.94;4128342;28;20233;-48
2023/07/27 00:40:29;;;;;;;3.05;1.65;;;;;;;15.31;98.98;98291.41;4111132;28;20757;-47
2023/07/27 00:42:31;;;;;;;2.50;2.10;;;;;;;15.20;100.00;98289.84;4141899;28;20232;-49
2023/07/27 00:44:33;;;;;;;7.07;1.55;;;;;;;15.08;99.81;98283.88;4125383;28;20210;-47
2023/07/27 00:46:38;;;;;;;1.58;1.48;;;;;;;15.11;99.80;98282.47;4127197;28;20210;-47
2023/07/27 00:48:40;;;;;;;2.63;2.17;;;;;;;15.04;100.00;98282.78;4129768;28;20202;-48
2023/07/27 00:50:42;;;;;;;3.28;1.88;;;;;;;15.05;100.00;98287.19;4128354;28;20222;-48
2023/07/27 00:52:43;;;;;;;2.10;1.83;;;;;;;15.09;100.00;98270.91;4144120;28;20217;-49
2023/07/27 00:54:45;;;;;;;2.00;1.80;;;;;;;15.07;100.00;98273.94;4128846;28;20655;-48
2023/07/27 00:56:47;;;;;;;4.40;1.83;;;;;;;15.04;100.00;98271.75;4126945;28;20217;-49
2023/07/27 00:58:49;;;;;;;3.90;1.50;;;;;;;15.10;100.00;98265.09;4124073;28;20285;-48
2023/07/27 01:00:51;;;;;;;2.25;1.80;;;;;;;15.07;100.00;98259.34;4126016;28;20225;-48
2023/07/27 01:02:53;;;;;;;3.25;2.17;;;;;;;15.01;100.00;98261.31;4123854;28;20209;-48
2023/07/27 01:04:55;;;;;;;2.33;2.13;;;;;;;15.01;100.00;98264.06;4125470;28;21014;-48
2023/07/27 01:06:57;;;;;;;1.98;1.77;;;;;;;14.99;99.73;98249.75;4125435;28;20249;-48
2023/07/27 01:08:59;;;;;;;1.42;1.23;;;;;;;14.98;99.70;98242.59;4126613;28;20198;-48
2023/07/27 01:11:08;;;;;;;2.22;1.50;;;;;;;14.98;99.86;98248.13;4107928;28;20642;-49
2023/07/27 01:13:18;;;;;;;1.70;1.60;;;;;;;15.01;99.91;98236.50;4126123;28;20205;-48
2023/07/27 01:15:23;;;;;;;2.25;2.05;;;;;;;15.01;99.75;98231.00;4124428;28;20217;-48
2023/07/27 01:17:32;;;;;;;3.97;1.92;;;;;;;14.97;100.00;98229.09;4141719;28;20213;-48
2023/07/27 01:19:40;;;;;;;2.42;1.95;;;;;;;14.96;99.99;98239.28;4126952;28;20768;-48
2023/07/27 01:21:49;;;;;;;1.60;1.50;;;;;;;14.98;100.00;98228.81;4142388;28;20208;-47
2023/07/27 01:24:07;;;;;;;2.33;1.90;;;;;;;15.10;100.00;98229.28;4128489;28;20205;-48
2023/07/27 01:26:26;;;;;;;2.08;1.85;;;;;;;15.00;100.00;98229.34;4126299;28;20268;-48
2023/07/27 01:29:05;;;;;;;4.25;2.20;;;;;;;14.94;100.00;98230.47;4142342;28;20205;-48
2023/07/27 01:31:09;;;;;;;3.22;1.80;;;;;;;15.02;100.00;98227.13;4126489;28;20210;-48
2023/07/27 01:33:13;;;;;;;1.63;1.52;;;;;;;14.90;100.00;98223.88;4127604;28;20280;-48
2023/07/27 01:35:16;;;;;;;2.92;1.65;;;;;;;14.89;100.00;98227.75;4143462;28;20217;-48
2023/07/27 01:37:18;;;;;;;2.38;1.55;;;;;;;14.90;100.00;98223.88;4119096;28;20239;-48
2023/07/27 01:39:21;;;;;;;2.65;1.77;;;;;;;14.92;100.00;98221.69;4126862;28;20225;-48
2023/07/27 01:41:23;;;;;;;1.88;1.63;;;;;;;14.97;100.00;98218.88;4125837;28;20218;-48
2023/07/27 01:43:26;;;;;;;2.47;2.28;;;;;;;15.00;100.00;98212.81;4108616;28;20219;-49
2023/07/27 01:45:28;;;;;;;2.83;1.42;;;;;;;14.92;100.00;98216.19;4124903;28;20983;-48
2023/07/27 01:47:30;;;;;;;1.63;1.50;;;;;;;14.92;100.00;98205.16;4110330;28;20214;-47
2023/07/27 01:49:32;;;;;;;2.47;1.83;;;;;;;14.89;100.00;98205.72;4126239;28;20277;-48
2023/07/27 01:51:35;;;;;;;2.60;1.85;;;;;;;14.91;100.00;98203.50;4125386;28;20325;-49
2023/07/27 01:53:37;;;;;;;2.90;1.50;;;;;;;14.91;100.00;98206.25;4124803;28;20638;-49
2023/07/27 01:55:40;;;;;;;2.72;1.88;;;;;;;14.92;100.00;98199.66;4125785;28;20224;-48
2023/07/27 01:57:42;;;;;;;1.98;1.77;;;;;;;14.94;100.00;98200.19;4113983;28;20213;-49
2023/07/27 01:59:45;;;;;;;2.88;1.90;;;;;;;14.96;100.00;98195.19;4142681;28;20233;-48
2023/07/27 02:01:47;;;;;;;5.03;2.28;;;;;;;14.95;100.00;98184.44;4114316;28;20207;-48
2023/07/27 02:03:50;;;;;;;1.70;1.60;;;;;;;15.03;100.00;98190.19;4110540;28;20661;-48
2023/07/27 02:05:52;;;;;;;2.30;1.90;;;;;;;15.08;100.00;98187.41;4111919;28;20210;-47
2023/07/27 02:07:53;;;;;;;2.90;1.67;;;;;;;14.96;100.00;98175.09;4126597;28;20206;-48
2023/07/27 02:09:55;;;;;;;1.63;1.52;;;;;;;14.96;100.00;98178.66;4122984;28;20226;-49
2023/07/27 02:12:10;;;;;;;1.63;1.52;;;;;;;14.96;100.00;98178.66;4130111;28;20226;-48
2023/07/27 02:14:21;;;;;;;2.00;1.80;;;;;;;14.97;100.00;98180.31;4125582;28;20214;-48
2023/07/27 02:16:28;;;;;;;2.63;2.00;;;;;;;15.06;100.00;98177.78;4119848;28;20281;-48
2023/07/27 02:18:30;;;;;;;2.22;1.70;;;;;;;14.99;100.00;98172.59;4125160;28;20223;-50
2023/07/27 02:20:35;;;;;;;2.22;1.52;;;;;;;15.00;100.00;98171.47;4103395;28;20235;-48
2023/07/27 02:22:37;;;;;;;1.95;1.55;;;;;;;15.10;100.00;98168.63;4101627;28;20254;-48
2023/07/27 02:24:39;;;;;;;3.67;1.95;;;;;;;15.06;100.00;98167.59;4124377;28;20558;-48
2023/07/27 02:26:42;;;;;;;1.98;1.88;;;;;;;15.09;100.00;98157.91;4125470;28;20256;-48
2023/07/27 02:28:44;;;;;;;1.63;1.33;;;;;;;15.04;100.00;98164.28;4108809;28;20207;-48
2023/07/27 02:30:46;;;;;;;2.38;1.55;;;;;;;15.04;100.00;98156.00;4108058;28;20226;-48
2023/07/27 02:32:47;;;;;;;2.53;1.75;;;;;;;15.06;100.00;98155.72;4131383;28;20272;-47
2023/07/27 02:34:49;;;;;;;2.78;1.50;;;;;;;15.11;100.00;98162.00;4125961;28;20237;-49
2023/07/27 02:36:51;;;;;;;5.82;3.13;;;;;;;15.07;100.00;98152.69;4128322;28;20214;-48
2023/07/27 02:38:53;;;;;;;1.58;1.30;;;;;;;15.06;100.00;98155.72;4124444;28;20244;-48
2023/07/27 02:40:54;;;;;;;2.03;1.88;;;;;;;15.04;100.00;98153.25;4109731;28;20282;-48
2023/07/27 02:42:56;;;;;;;2.20;1.92;;;;;;;15.09;100.00;98144.13;4125851;28;20206;-48
2023/07/27 02:45:01;;;;;;;2.78;1.63;;;;;;;15.03;100.00;98151.59;4126088;28;20264;-49
2023/07/27 02:47:03;;;;;;;4.18;1.90;;;;;;;15.11;100.00;98152.94;4125873;28;20214;-48
2023/07/27 02:49:05;;;;;;;1.95;1.85;;;;;;;15.05;100.00;98154.91;4113121;28;20233;-47
2023/07/27 02:51:06;;;;;;;2.30;1.80;;;;;;;15.02;100.00;98149.97;4125641;28;20576;-49
2023/07/27 02:53:08;;;;;;;2.20;1.35;;;;;;;15.06;100.00;98151.03;4127718;28;20233;-47
2023/07/27 02:55:10;;;;;;;2.20;1.63;;;;;;;15.06;100.00;98150.22;4125900;28;20214;-47
2023/07/27 02:57:12;;;;;;;1.88;1.58;;;;;;;15.00;100.00;98152.19;4125852;28;20210;-48
2023/07/27 02:59:14;;;;;;;2.83;1.58;;;;;;;14.99;100.00;98150.56;4141473;28;20213;-47
2023/07/27 03:01:16;;;;;;;1.90;1.42;;;;;;;15.06;100.00;98148.28;4124722;28;20222;-47
2023/07/27 03:03:18;;;;;;;1.42;1.33;;;;;;;15.05;100.00;98149.41;4126100;28;20210;-48
2023/07/27 03:05:19;;;;;;;2.17;1.95;;;;;;;15.03;100.00;98151.59;4124562;28;20555;-48
2023/07/27 03:07:21;;;;;;;2.88;1.80;;;;;;;15.12;100.00;98155.41;4124491;28;20214;-48
2023/07/27 03:09:23;;;;;;;2.60;1.85;;;;;;;15.05;100.00;98148.56;4125882;28;20687;-47
2023/07/27 03:11:25;;;;;;;1.65;1.55;;;;;;;15.08;100.00;98137.78;4125791;28;20218;-48
2023/07/27 03:13:26;;;;;;;2.22;1.83;;;;;;;15.18;100.00;98137.72;4125210;28;20237;-48
2023/07/27 03:15:28;;;;;;;1.90;1.67;;;;;;;15.12;100.00;98144.38;4142182;28;20213;-48
2023/07/27 03:17:30;;;;;;;1.42;1.33;;;;;;;15.17;100.00;98141.56;4125660;28;20226;-47
2023/07/27 03:19:32;;;;;;;4.50;1.83;;;;;;;15.13;100.00;98134.16;4125346;28;20238;-48
2023/07/27 03:21:34;;;;;;;1.65;1.55;;;;;;;15.13;100.00;98131.41;4124108;28;20213;-48
2023/07/27 03:23:35;;;;;;;3.50;1.48;;;;;;;15.10;100.00;98134.75;4141076;28;20209;-48
2023/07/27 03:25:37;;;;;;;1.35;1.25;;;;;;;15.12;100.00;98130.59;4120981;28;20617;-48
2023/07/27 03:27:39;;;;;;;2.15;1.73;;;;;;;15.12;100.00;98138.88;4123945;28;20217;-48
2023/07/27 03:29:41;;;;;;;3.25;1.58;;;;;;;15.14;100.00;98130.28;4123712;28;20288;-48
2023/07/27 03:31:43;;;;;;;2.97;1.60;;;;;;;15.11;100.00;98133.63;4124418;28;20298;-47
2023/07/27 03:33:46;;;;;;;1.58;1.48;;;;;;;15.13;100.00;98135.00;4124394;28;20611;-48
2023/07/27 03:35:48;;;;;;;2.33;1.63;;;;;;;15.16;100.00;98131.66;4124270;28;21065;-48
2023/07/27 03:37:50;;;;;;;3.10;1.98;;;;;;;15.19;100.00;98139.38;4109686;28;20705;-49
2023/07/27 03:39:52;;;;;;;8.10;1.48;;;;;;;15.06;100.00;98123.47;4106027;28;20238;-47
2023/07/27 03:41:54;;;;;;;2.10;1.65;;;;;;;15.08;100.00;98125.94;4108689;28;20214;-47
2023/07/27 03:43:56;;;;;;;2.00;1.65;;;;;;;15.09;100.00;98122.91;4123639;28;20201;-48
2023/07/27 03:45:58;;;;;;;3.20;1.75;;;;;;;15.12;100.00;98127.84;4119611;28;20217;-48
2023/07/27 03:47:59;;;;;;;4.95;1.70;;;;;;;15.13;100.00;98129.50;4118944;28;20210;-49
2023/07/27 03:50:01;;;;;;;1.63;1.27;;;;;;;15.16;100.00;98128.09;4121669;28;20257;-48
2023/07/27 03:52:03;;;;;;;3.35;1.80;;;;;;;15.28;100.00;98126.59;4141867;28;20308;-48
2023/07/27 03:54:05;;;;;;;2.42;1.90;;;;;;;15.19;100.00;98128.34;4124027;28;20268;-48
2023/07/27 03:56:08;;;;;;;3.60;1.83;;;;;;;15.10;100.00;98123.72;4122641;28;20224;-49
2023/07/27 03:58:09;;;;;;;1.83;1.73;;;;;;;15.14;100.00;98122.84;4127641;28;20202;-48
2023/07/27 04:00:12;;;;;;;2.90;2.20;;;;;;;15.19;100.00;98128.34;4126443;28;20239;-48
2023/07/27 04:02:13;;;;;;;2.42;1.92;;;;;;;15.17;100.00;98127.78;4140799;28;20212;-48
2023/07/27 04:04:15;;;;;;;7.25;1.88;;;;;;;15.22;100.00;98122.22;4126108;28;20202;-48
2023/07/27 04:06:17;;;;;;;1.70;1.60;;;;;;;15.29;100.00;98122.72;4124868;28;20221;-47
2023/07/27 04:08:19;;;;;;;1.88;1.65;;;;;;;15.42;100.00;98111.03;4108572;28;20211;-49
2023/07/27 04:10:20;;;;;;;3.35;1.70;;;;;;;15.42;100.00;98116.56;4125015;28;20280;-49
2023/07/27 04:12:22;;;;;;;1.98;1.83;;;;;;;15.56;100.00;98105.69;4127706;28;20230;-47
2023/07/27 04:14:24;;;;;;;2.60;1.88;;;;;;;15.61;100.00;98103.69;4124692;28;20206;-45
2023/07/27 04:16:26;;;;;;;1.58;1.48;;;;;;;15.61;100.00;98100.91;4126603;28;20782;-47
2023/07/27 04:18:27;;;;;;;4.20;1.60;;;;;;;15.59;100.00;98094.88;4125216;28;20214;-47
2023/07/27 04:20:29;;;;;;;2.05;1.42;;;;;;;15.67;100.00;98097.00;4125620;28;20230;-47
2023/07/27 04:22:31;;;;;;;1.85;1.45;;;;;;;15.62;100.00;98086.00;4126214;28;20209;-49
2023/07/27 04:24:33;;;;;;;1.75;1.58;;;;;;;15.60;100.00;98099.28;4123892;28;20214;-47
2023/07/27 04:26:35;;;;;;;4.50;2.40;;;;;;;15.62;100.00;98094.28;4125002;28;20205;-48
2023/07/27 04:28:37;;;;;;;1.95;1.48;;;;;;;15.70;100.00;98096.41;4123027;28;20240;-48
2023/07/27 04:30:40;;;;;;;1.83;1.60;;;;;;;15.57;100.00;98090.78;4125636;28;20242;-47
2023/07/27 04:32:41;;;;;;;1.92;1.75;;;;;;;15.57;100.00;98099.84;4124080;28;20254;-48
2023/07/27 04:34:43;;;;;;;2.67;1.85;;;;;;;15.57;100.00;98104.56;4123810;28;20206;-47
2023/07/27 04:36:47;;;;;;;2.65;1.52;;;;;;;15.63;100.00;98106.97;4121136;28;20230;-49
2023/07/27 04:38:49;;;;;;;2.80;1.67;;;;;;;15.61;100.00;98114.72;4138684;28;20217;-46
2023/07/27 04:40:51;;;;;;;3.08;1.83;;;;;;;15.57;100.00;98107.31;4125785;28;20800;-47
2023/07/27 04:42:53;;;;;;;3.55;2.25;;;;;;;15.51;100.00;98102.97;4125995;28;20688;-47
2023/07/27 04:44:54;;;;;;;1.70;1.60;;;;;;;15.56;100.00;98106.47;4125708;28;20214;-47
2023/07/27 04:46:58;;;;;;;9.25;2.05;;;;;;;15.61;100.00;98098.16;4124578;28;20245;-48
2023/07/27 04:49:01;;;;;;;2.10;1.80;;;;;;;15.52;100.00;98088.91;4138420;28;20210;-55
2023/07/27 04:51:02;;;;;;;2.30;1.98;;;;;;;15.47;100.00;98094.44;4121879;28;20230;-49
2023/07/27 04:53:04;;;;;;;5.43;1.95;;;;;;;15.46;100.00;98089.22;4123940;28;20262;-49
2023/07/27 04:55:06;;;;;;;1.67;1.58;;;;;;;15.54;100.00;98097.69;4126562;28;20213;-47
2023/07/27 04:57:08;;;;;;;2.45;2.08;;;;;;;15.49;100.00;98094.97;4122662;28;20205;-47
2023/07/27 04:59:10;;;;;;;5.82;1.55;;;;;;;15.52;100.00;98094.41;4124955;28;20717;-47
2023/07/27 05:01:12;;;;;;;2.88;1.83;;;;;;;15.51;100.00;98095.50;4123858;28;20216;-49
2023/07/27 05:03:13;;;;;;;3.13;2.20;;;;;;;15.51;100.00;98087.22;4122614;28;21023;-46
2023/07/27 05:05:15;;;;;;;2.00;1.85;;;;;;;15.54;100.00;98081.13;4124781;28;20213;-49
2023/07/27 05:07:19;;;;;;;4.25;2.00;;;;;;;15.56;100.00;98078.91;4121398;28;20627;-48
2023/07/27 05:09:20;;;;;;;3.50;1.65;;;;;;;15.55;100.00;98074.50;4124473;28;20810;-47
2023/07/27 05:11:22;;;;;;;2.03;1.80;;;;;;;15.55;100.00;98076.47;4125006;28;20206;-46
2023/07/27 05:13:24;;;;;;;1.73;1.63;;;;;;;15.51;100.00;98076.19;4123941;28;20241;-47
2023/07/27 05:15:26;;;;;;;1.55;1.45;;;;;;;15.53;100.00;98074.00;4116801;28;20206;-48
2023/07/27 05:17:28;;;;;;;2.30;1.80;;;;;;;15.46;100.00;98073.50;4120902;28;20256;-46
2023/07/27 05:19:29;;;;;;;2.03;1.67;;;;;;;15.51;100.00;98070.69;4125083;28;20373;-48
2023/07/27 05:21:32;;;;;;;1.92;1.70;;;;;;;15.61;100.00;98070.56;4123835;28;20660;-46
2023/07/27 05:23:34;;;;;;;2.58;2.35;;;;;;;15.52;100.00;98066.84;4126896;28;20221;-46
2023/07/27 05:25:35;;;;;;;3.88;2.22;;;;;;;15.56;100.00;98067.06;4126716;28;20206;-47
2023/07/27 05:27:37;;;;;;;5.60;1.88;;;;;;;15.53;100.00;98062.94;4122121;28;20214;-46
2023/07/27 05:29:39;;;;;;;4.03;2.30;;;;;;;15.62;100.00;98061.19;4119078;28;20229;-48
2023/07/27 05:31:41;;;;;;;1.98;1.85;;;;;;;15.58;100.00;98051.88;4140389;28;20244;-47
2023/07/27 05:33:42;;;;;;;2.17;1.70;;;;;;;15.60;100.00;98059.84;4125674;28;20206;-47
2023/07/27 05:35:48;;;;;;;2.13;1.60;;;;;;;15.60;100.00;98057.06;4109892;28;20202;-46
2023/07/27 05:37:50;;;;;;;4.72;2.00;;;;;;;15.46;100.00;98062.47;4123973;28;20233;-47
2023/07/27 05:39:52;;;;;;;2.35;2.00;;;;;;;15.62;100.00;98060.38;4123356;28;20253;-47
2023/07/27 05:41:54;;;;;;;2.17;1.75;;;;;;;15.52;100.00;98054.97;4123663;28;20205;-45
2023/07/27 05:43:56;;;;;;;2.58;1.80;;;;;;;15.53;100.00;98051.09;4122865;28;20194;-45
2023/07/27 05:46:00;;;;;;;2.85;1.67;;;;;;;15.48;100.00;98051.97;4124636;28;20714;-46
2023/07/27 05:48:02;;;;;;;2.45;1.95;;;;;;;15.50;100.00;98052.50;4124668;28;20206;-46
2023/07/27 05:50:06;;;;;;;2.28;2.00;;;;;;;15.61;100.00;98048.50;4124231;28;20675;-47
2023/07/27 05:52:08;;;;;;;3.33;1.70;;;;;;;15.51;100.00;98045.06;4125425;28;20245;-47
2023/07/27 05:54:09;;;;;;;2.15;1.67;;;;;;;15.54;100.00;98044.44;4125357;28;20222;-46
2023/07/27 05:56:11;;;;;;;6.72;2.28;;;;;;;15.46;100.00;98032.16;4123093;28;20214;-46
2023/07/27 05:58:16;;;;;;;2.92;2.13;;;;;;;15.57;100.00;98036.41;4140456;28;20243;-47
2023/07/27 06:00:26;;;;;;;4.30;1.83;;;;;;;15.55;100.00;98033.13;4109347;28;20258;-46
2023/07/27 06:02:28;;;;;;;2.13;1.60;;;;;;;15.57;100.00;98036.41;4127703;28;20560;-47
2023/07/27 06:04:30;;;;;;;1.75;1.63;;;;;;;15.56;100.00;98033.97;4141131;28;20202;-48
2023/07/27 06:06:32;;;;;;;2.00;1.45;;;;;;;15.58;100.00;98027.03;4106868;28;20215;-47
2023/07/27 06:08:34;;;;;;;2.40;2.03;;;;;;;15.58;100.00;98032.56;4125647;28;20261;-46
2023/07/27 06:10:36;;;;;;;1.52;1.42;;;;;;;15.55;100.00;98044.16;4124729;28;20284;-46
2023/07/27 06:12:38;;;;;;;2.38;1.55;;;;;;;15.61;100.00;98044.91;4127579;28;20213;-46
2023/07/27 06:14:40;;;;;;;2.85;1.85;;;;;;;15.61;100.00;98045.75;4107687;28;20203;-46
2023/07/27 06:16:42;;;;;;;2.97;1.52;;;;;;;15.57;100.00;98041.94;4122849;28;20720;-47
2023/07/27 06:18:43;;;;;;;4.72;1.83;;;;;;;15.59;100.00;98047.16;4124882;28;20206;-47
2023/07/27 06:20:45;;;;;;;3.83;2.90;;;;;;;15.57;100.00;98038.38;4139289;28;20235;-46
2023/07/27 06:22:47;;;;;;;3.33;1.98;;;;;;;15.58;100.00;98040.84;4123338;28;20214;-46
2023/07/27 06:24:52;;;;;;;3.95;2.13;;;;;;;15.54;100.00;98034.25;4124112;28;20214;-46
2023/07/27 06:26:54;;;;;;;3.08;1.42;;;;;;;15.53;100.00;98040.88;4122673;28;20233;-46
2023/07/27 06:28:55;;;;;;;3.33;1.45;;;;;;;15.54;100.00;98042.53;4109782;28;20230;-49
2023/07/27 06:30:57;;;;;;;2.80;1.73;;;;;;;15.59;100.00;98038.88;4109006;28;20227;-48
2023/07/27 06:32:59;;;;;;;1.45;1.35;;;;;;;15.56;100.00;98047.75;4127390;28;20220;-47
2023/07/27 06:35:01;;;;;;;2.75;1.60;;;;;;;15.61;100.00;98043.00;4108814;28;20750;-48
2023/07/27 06:37:03;;;;;;;1.73;1.52;;;;;;;15.65;100.00;98038.53;4140115;28;20217;-47
2023/07/27 06:39:05;;;;;;;6.25;2.10;;;;;;;15.62;100.00;98041.06;4125223;28;20218;-46
2023/07/27 06:41:06;;;;;;;3.40;1.95;;;;;;;15.64;100.00;98047.91;4121999;28;20862;-45
2023/07/27 06:43:08;;;;;;;2.20;1.17;;;;;;;15.66;100.00;98042.09;4124875;28;22137;-46
2023/07/27 06:45:10;;;;;;;1.60;1.40;;;;;;;15.63;100.00;98035.25;4140462;28;20212;-45
2023/07/27 06:47:12;;;;;;;1.90;1.30;;;;;;;15.70;100.00;98043.97;4116576;28;20949;-46
2023/07/27 06:49:14;;;;;;;1.73;1.52;;;;;;;15.67;100.00;98039.06;4117059;28;20709;-47
2023/07/27 06:51:19;;;;;;;4.47;2.20;;;;;;;15.64;100.00;98042.41;4124243;28;20223;-46
2023/07/27 06:53:21;;;;;;;3.30;1.48;;;;;;;15.62;100.00;98030.84;4118160;28;20221;-46
2023/07/27 06:55:23;;;;;;;3.00;1.60;;;;;;;15.57;100.00;98028.13;4125533;28;20248;-45
2023/07/27 06:57:25;;;;;;;3.15;1.98;;;;;;;15.63;100.00;98029.72;4134181;28;20209;-46
2023/07/27 06:59:26;;;;;;;2.67;1.30;;;;;;;15.58;100.00;98020.69;4137155;28;20232;-45
2023/07/27 07:01:31;;;;;;;1.80;1.33;;;;;;;15.56;100.00;98018.22;4119575;28;20763;-45
2023/07/27 07:03:33;;;;;;;2.28;1.65;;;;;;;15.58;100.00;98021.53;4123353;28;20202;-46
2023/07/27 07:05:35;;;;;;;2.30;1.38;;;;;;;15.57;100.00;98019.06;4123553;28;20205;-48
2023/07/27 07:07:38;;;;;;;2.28;1.40;;;;;;;15.52;100.00;98010.84;4123656;28;20209;-48
2023/07/27 07:09:40;;;;;;;1.77;1.67;;;;;;;15.54;100.00;98003.91;4149931;23;20560;-48
2023/07/27 07:11:48;;;;;;;2.58;1.60;;;;;;;15.52;100.00;98003.41;4109138;28;20221;-47
2023/07/27 07:13:49;;;;;;;2.03;1.60;;;;;;;15.56;100.00;98000.88;4119994;28;20223;-46
2023/07/27 07:15:51;;;;;;;2.53;1.50;;;;;;;15.59;100.00;97990.06;4123251;28;20214;-46
2023/07/27 07:17:53;;;;;;;3.20;2.00;;;;;;;15.63;100.00;97995.81;4119804;28;20226;-47
2023/07/27 07:19:56;;;;;;;1.50;1.40;;;;;;;15.63;100.00;97996.63;4142317;28;20229;-46
2023/07/27 07:21:58;;;;;;;2.80;1.85;;;;;;;15.56;100.00;97998.13;4107992;28;20251;-46
2023/07/27 07:24:02;;;;;;;1.75;1.65;;;;;;;15.41;100.00;97999.09;4124635;28;20729;-48
2023/07/27 07:26:11;;;;;;;2.20;1.58;;;;;;;15.45;100.00;98011.22;4123801;28;20209;-45
2023/07/27 07:28:13;;;;;;;3.08;1.55;;;;;;;15.40;100.00;98013.19;4126360;28;20292;-45
2023/07/27 07:30:15;;;;;;;1.83;1.67;;;;;;;15.44;100.00;98009.53;4126167;28;20296;-45
2023/07/27 07:32:17;;;;;;;1.95;1.60;;;;;;;15.37;100.00;98014.59;4140996;28;20232;-45
2023/07/27 07:34:19;;;;;;;1.70;1.48;;;;;;;15.28;100.00;98021.00;4125631;28;20238;-45
2023/07/27 07:36:21;;;;;;;2.03;1.83;;;;;;;15.26;100.00;98023.22;4123077;28;20265;-46
2023/07/27 07:38:23;;;;;;;1.60;1.50;;;;;;;15.18;100.00;98015.59;4124146;28;20724;-46
2023/07/27 07:40:31;;;;;;;5.97;1.38;;;;;;;15.22;100.00;98011.97;4124001;28;20262;-46
2023/07/27 07:42:33;;;;;;;2.60;1.70;;;;;;;15.12;100.00;98014.84;4138868;28;20679;-45
2023/07/27 07:44:35;;;;;;;3.25;2.13;;;;;;;15.11;100.00;98002.16;4107943;28;20580;-46
2023/07/27 07:46:36;;;;;;;2.10;1.60;;;;;;;15.10;100.00;98008.78;4123544;28;20206;-46
2023/07/27 07:48:38;;;;;;;2.72;1.83;;;;;;;15.05;100.00;97995.06;4123968;28;20238;-45
2023/07/27 07:50:40;;;;;;;4.10;2.45;;;;;;;15.08;100.00;97986.22;4107656;28;20317;-45
2023/07/27 07:52:42;;;;;;;3.17;2.17;;;;;;;15.05;100.00;98000.59;4118947;28;20214;-45
2023/07/27 07:54:44;;;;;;;3.30;2.13;;;;;;;15.11;100.00;98004.09;4123556;28;20222;-45
2023/07/27 07:56:47;;;;;;;2.28;1.88;;;;;;;15.04;100.00;98004.44;4124494;28;20210;-45
2023/07/27 07:58:52;;;;;;;2.08;1.75;;;;;;;15.07;100.00;98003.88;4125430;28;20863;-45
2023/07/27 08:00:56;;;;;;;1.95;1.55;;;;;;;15.14;100.00;98011.78;4118857;28;20261;-46
2023/07/27 08:03:04;;;;;;;2.20;1.70;;;;;;;15.06;100.00;97993.13;4140380;28;20247;-45
2023/07/27 08:05:06;;;;;;;4.25;2.08;;;;;;;15.04;100.00;97998.13;4125417;28;20652;-45
2023/07/27 08:07:08;;;;;;;2.67;1.80;;;;;;;15.08;100.00;97972.44;4109689;28;20230;-45
2023/07/27 08:09:10;;;;;;;2.15;1.95;;;;;;;15.10;100.00;97939.88;4127108;28;20209;-45
2023/07/27 08:11:12;;;;;;;2.00;1.90;;;;;;;15.07;100.00;97943.25;4125228;28;20687;-45
2023/07/27 08:13:14;;;;;;;2.95;2.17;;;;;;;15.14;100.00;97943.72;4126014;28;20658;-46
2023/07/27 08:15:17;;;;;;;2.70;1.95;;;;;;;15.23;100.00;97952.16;4127463;28;20233;-44
2023/07/27 08:17:22;;;;;;;2.28;2.08;;;;;;;15.34;100.00;97942.66;4125314;28;20210;-45
2023/07/27 08:19:27;;;;;;;6.07;2.28;;;;;;;15.37;100.00;97950.38;4126062;28;20214;-45
2023/07/27 08:21:29;;;;;;;2.95;2.22;;;;;;;15.43;100.00;97944.47;4127114;28;20309;-46
2023/07/27 08:23:33;;;;;;;2.20;1.90;;;;;;;15.49;100.00;97946.06;4123686;28;20292;-46
2023/07/27 08:25:39;;;;;;;2.67;2.45;;;;;;;15.51;100.00;97943.81;4126003;28;20245;-46
2023/07/27 08:27:41;;;;;;;4.88;2.47;;;;;;;15.55;100.00;97944.88;4125305;28;20206;-45
2023/07/27 08:29:43;;;;;;;2.10;1.90;;;;;;;15.67;100.00;97948.03;4121821;28;20253;-44
2023/07/27 08:31:48;;;;;;;4.63;2.30;;;;;;;15.71;100.00;97957.34;4120101;28;20210;-46
2023/07/27 08:33:50;;;;;;;5.13;2.17;;;;;;;15.85;100.00;97955.50;4125110;28;20795;-47
2023/07/27 08:35:51;;;;;;;2.75;2.22;;;;;;;15.80;100.00;97952.81;4138736;28;20208;-46
2023/07/27 08:37:53;;;;;;;5.35;2.85;;;;;;;15.84;100.00;97953.03;4124914;28;20212;-46
2023/07/27 08:39:58;;;;;;;2.40;2.08;;;;;;;15.76;100.00;97946.25;4123622;28;20230;-46
2023/07/27 08:42:00;;;;;;;2.45;2.13;;;;;;;15.81;100.00;97948.94;4127021;28;20687;-46
2023/07/27 08:44:02;;;;;;;2.08;1.83;;;;;;;15.85;100.00;97950.00;4110538;28;20203;-47
2023/07/27 08:46:04;;;;;;;2.28;2.08;;;;;;;15.96;100.00;97945.94;4118812;28;20214;-46
2023/07/27 08:48:06;;;;;;;2.42;2.22;;;;;;;15.97;100.00;97942.06;4105852;28;20266;-46
2023/07/27 08:50:09;;;;;;;3.90;2.70;;;;;;;16.04;100.00;97952.75;4126209;28;20257;-48
2023/07/27 08:52:12;;;;;;;3.08;1.88;;;;;;;16.18;100.00;97934.31;4138877;28;20257;-45
2023/07/27 08:54:14;;;;;;;3.72;2.60;;;;;;;16.27;100.00;97946.31;4121885;28;20230;-46
2023/07/27 08:56:16;;;;;;;2.30;2.10;;;;;;;16.22;100.00;97941.69;4120581;28;20220;-46
2023/07/27 08:58:18;;;;;;;3.03;2.08;;;;;;;16.33;100.00;97929.38;4141283;28;20209;-45
2023/07/27 09:00:20;;;;;;;4.03;2.40;;;;;;;16.39;100.00;97933.72;4120304;28;22278;-45
2023/07/27 09:02:22;;;;;;;7.05;1.98;;;;;;;16.49;100.00;97928.00;4105535;28;20245;-47
2023/07/27 09:04:23;;;;;;;1.80;1.70;;;;;;;16.41;100.00;97931.47;4105069;28;20297;-45
2023/07/27 09:06:45;;;;;;;2.85;1.73;;;;;;;16.38;100.00;97926.56;4123767;28;20249;-45
2023/07/27 09:08:47;;;;;;;3.40;1.98;;;;;;;16.35;100.00;97938.16;4123590;28;21104;-46
2023/07/27 09:10:49;;;;;;;2.90;2.00;;;;;;;16.51;100.00;97931.31;4137095;28;20790;-46
2023/07/27 09:12:59;;;;;;;2.35;1.90;;;;;;;16.45;100.00;97937.22;4125715;28;20428;-46
2023/07/27 09:15:21;;;;;;;3.13;1.88;;;;;;;16.55;100.00;97937.84;4123103;28;20218;-44
2023/07/27 09:17:23;;;;;;;2.60;1.67;;;;;;;16.69;100.00;97944.25;4103476;28;20294;-45
2023/07/27 09:19:26;;;;;;;1.75;1.65;;;;;;;16.69;100.00;97941.47;4125699;28;21201;-46
2023/07/27 09:21:40;;;;;;;1.70;1.58;;;;;;;16.73;100.00;97939.75;4104782;28;20215;-46
2023/07/27 09:23:44;;;;;;;1.98;1.80;;;;;;;16.75;100.00;97947.75;4118210;28;20296;-46
2023/07/27 09:25:56;;;;;;;2.38;1.75;;;;;;;16.80;100.00;97937.41;4117570;28;20211;-46
2023/07/27 09:27:58;;;;;;;2.40;1.67;;;;;;;16.73;100.00;97934.22;4105695;28;20211;-47
2023/07/27 09:30:00;;;;;;;3.35;2.00;;;;;;;16.72;100.00;97927.06;4120785;28;20232;-47
2023/07/27 09:32:01;;;;;;;2.00;1.80;;;;;;;16.73;100.00;97928.72;4094245;28;20304;-46
2023/07/27 09:34:06;;;;;;;3.28;1.70;;;;;;;16.68;100.00;97931.56;4125442;28;20226;-47